Time;durP1;ratioP1;P1;durP2;ratioP2;P2;SDS_P1;SDS_P2;PMS_P1;PMS_P2;Temp;Humidity;BMP_temperature;BMP_pressure;BME280_temperature;BME280_humidity;BME280_pressure;Samples;Min_cycle;Max_cycle;Signal;HPM_P1;HPM_P2
2023/01/29 00:01:37;;;;;;;1.05;1.05;;;;;;;;;;6288543;28;20048;-77
2023/01/29 00:04:37;;;;;;;2.87;2.63;;;;;;;;;;6288312;28;20472;-78
2023/01/29 00:07:37;;;;;;;1.43;1.37;;;;;;;;;;6265725;28;20016;-77
2023/01/29 00:10:37;;;;;;;0.30;0.30;;;;;;;;;;6284210;28;20020;-78
2023/01/29 00:13:38;;;;;;;0.50;0.50;;;;;;;;;;6290084;28;20016;-78
2023/01/29 00:16:38;;;;;;;10.52;2.20;;;;;;;;;;6288475;28;20421;-78
2023/01/29 00:19:38;;;;;;;1.53;1.43;;;;;;;;;;6287633;28;20020;-78
2023/01/29 00:22:38;;;;;;;1.33;1.33;;;;;;;;;;6288082;28;20021;-78
2023/01/29 00:25:38;;;;;;;1.93;1.83;;;;;;;;;;6275352;28;20446;-78
2023/01/29 00:28:39;;;;;;;1.27;1.20;;;;;;;;;;6288784;28;20020;-77
2023/01/29 00:31:39;;;;;;;3.20;3.00;;;;;;;;;;6287288;28;20091;-77
2023/01/29 00:34:39;;;;;;;2.40;2.27;;;;;;;;;;6286558;28;20028;-78
2023/01/29 00:37:39;;;;;;;0.47;0.47;;;;;;;;;;6289508;28;20021;-78
2023/01/29 00:47:32;;;;;;;2.13;2.00;;;;;;;;;;6293200;28;20025;-80
2023/01/29 00:50:32;;;;;;;2.30;2.20;;;;;;;;;;6288079;28;20451;-80
2023/01/29 00:53:32;;;;;;;4.47;2.60;;;;;;;;;;6283317;28;20047;-80
2023/01/29 00:56:34;;;;;;;2.50;2.30;;;;;;;;;;6297442;28;20104;-79
2023/01/29 00:59:34;;;;;;;;;;;;;;;;;;6277287;28;20009;-80
2023/01/29 01:06:03;;;;;;;1.23;1.23;;;;;;;;;;6297623;28;20040;-79
2023/01/29 01:12:22;;;;;;;2.50;1.88;;;;;;;;;;6293254;28;20024;-80
2023/01/29 01:15:24;;;;;;;3.80;2.90;;;;;;;;;;6291195;28;20442;-80
2023/01/29 01:18:24;;;;;;;1.30;1.25;;;;;;;;;;6264398;28;20404;-80
2023/01/29 01:21:24;;;;;;;3.90;3.60;;;;;;;;;;6295759;28;20023;-80
2023/01/29 01:24:25;;;;;;;1.63;1.53;;;;;;;;;;6275313;28;20040;-80
2023/01/29 01:27:25;;;;;;;4.13;3.87;;;;;;;;;;6275389;28;20442;-79
2023/01/29 01:30:26;;;;;;;1.97;1.90;;;;;;;;;;6297688;28;20032;-81
2023/01/29 01:33:26;;;;;;;1.03;1.03;;;;;;;;;;6295536;28;20063;-80
2023/01/29 01:36:26;;;;;;;1.40;1.40;;;;;;;;;;6279949;28;20023;-81
2023/01/29 01:39:26;;;;;;;2.57;2.47;;;;;;;;;;6290396;28;20013;-81
2023/01/29 01:42:29;;;;;;;3.17;2.90;;;;;;;;;;6296774;28;20044;-80
2023/01/29 01:45:31;;;;;;;4.00;1.73;;;;;;;;;;6279304;28;20047;-80
2023/01/29 01:48:31;;;;;;;1.15;1.15;;;;;;;;;;6296055;28;20021;-81
2023/01/29 01:51:32;;;;;;;1.17;1.17;;;;;;;;;;6292685;28;20055;-81
2023/01/29 01:54:33;;;;;;;1.10;1.10;;;;;;;;;;6279581;28;20062;-81
2023/01/29 01:57:33;;;;;;;0.30;0.30;;;;;;;;;;6296969;28;20020;-81
2023/01/29 02:00:34;;;;;;;3.60;3.30;;;;;;;;;;6279417;28;20158;-81
2023/01/29 02:10:41;;;;;;;0.47;0.47;;;;;;;;;;6294523;28;20021;-81
2023/01/29 02:13:42;;;;;;;7.03;3.60;;;;;;;;;;6293930;28;20045;-81
2023/01/29 02:16:42;;;;;;;0.50;0.50;;;;;;;;;;6279086;28;20028;-82
2023/01/29 02:20:01;;;;;;;2.57;1.87;;;;;;;;;;6279056;28;20012;-82
2023/01/29 02:23:16;;;;;;;1.73;1.67;;;;;;;;;;6275895;28;20028;-81
2023/01/29 02:26:25;;;;;;;2.63;2.53;;;;;;;;;;6284419;28;20082;-81
2023/01/29 02:29:44;;;;;;;2.17;2.08;;;;;;;;;;6278462;28;20025;-81
2023/01/29 02:32:57;;;;;;;2.42;2.25;;;;;;;;;;6294583;28;20184;-81
2023/01/29 02:36:09;;;;;;;0.68;0.68;;;;;;;;;;6294948;28;20032;-81
2023/01/29 02:39:18;;;;;;;3.00;2.72;;;;;;;;;;6295393;28;20100;-81
2023/01/29 02:42:27;;;;;;;5.28;2.50;;;;;;;;;;6296052;28;20016;-81
2023/01/29 02:45:43;;;;;;;11.10;1.67;;;;;;;;;;6278671;28;20048;-81
2023/01/29 02:48:51;;;;;;;1.92;1.83;;;;;;;;;;6294472;28;20029;-82
2023/01/29 02:52:13;;;;;;;2.75;2.65;;;;;;;;;;6297476;28;20107;-81
2023/01/29 02:55:17;;;;;;;2.60;1.85;;;;;;;;;;6277691;28;20028;-81
2023/01/29 02:58:23;;;;;;;0.50;0.50;;;;;;;;;;6276688;28;20119;-81
2023/01/29 03:01:31;;;;;;;3.60;3.30;;;;;;;;;;6282681;28;20077;-82
2023/01/29 03:04:33;;;;;;;2.28;1.77;;;;;;;;;;6283079;28;20024;-82
2023/01/29 03:07:45;;;;;;;1.15;1.13;;;;;;;;;;6296977;28;20021;-81
2023/01/29 03:10:49;;;;;;;1.73;1.73;;;;;;;;;;6300683;28;20021;-82
2023/01/29 03:13:58;;;;;;;0.47;0.47;;;;;;;;;;6301359;28;20050;-81
2023/01/29 03:16:59;;;;;;;0.88;0.82;;;;;;;;;;6289320;28;20017;-81
2023/01/29 03:20:00;;;;;;;1.33;0.63;;;;;;;;;;6281754;28;20047;-82
2023/01/29 03:23:04;;;;;;;0.40;0.40;;;;;;;;;;6282165;28;20012;-81
2023/01/29 03:32:43;;;;;;;0.30;0.30;;;;;;;;;;6296914;28;20044;-81
2023/01/29 03:35:48;;;;;;;0.70;0.70;;;;;;;;;;6272889;28;20016;-82
2023/01/29 03:38:48;;;;;;;3.95;3.75;;;;;;;;;;6293010;28;20099;-82
2023/01/29 03:41:49;;;;;;;0.53;0.53;;;;;;;;;;6280923;28;20023;-82
2023/01/29 03:44:59;;;;;;;3.20;3.00;;;;;;;;;;6290994;28;20017;-82
2023/01/29 03:48:21;;;;;;;0.35;0.35;;;;;;;;;;6293463;28;20464;-82
2023/01/29 03:51:25;;;;;;;2.17;1.98;;;;;;;;;;6279014;28;20017;-82
2023/01/29 03:54:32;;;;;;;0.47;0.47;;;;;;;;;;6280204;28;20009;-82
2023/01/29 03:57:39;;;;;;;0.30;0.30;;;;;;;;;;6281711;28;20020;-82
2023/01/29 04:00:43;;;;;;;0.90;0.90;;;;;;;;;;6291950;28;20594;-82
2023/01/29 04:03:50;;;;;;;0.60;0.60;;;;;;;;;;6280926;28;20047;-82
2023/01/29 04:06:51;;;;;;;0.52;0.52;;;;;;;;;;6297787;28;20027;-83
2023/01/29 04:09:54;;;;;;;1.67;1.40;;;;;;;;;;6275278;28;20012;-83
2023/01/29 04:12:57;;;;;;;0.90;0.90;;;;;;;;;;6274774;28;20104;-83
2023/01/29 04:15:58;;;;;;;0.40;0.40;;;;;;;;;;6279039;28;20384;-83
2023/01/29 04:18:58;;;;;;;3.22;2.42;;;;;;;;;;6281190;28;20385;-82
2023/01/29 04:22:08;;;;;;;0.40;0.40;;;;;;;;;;6279228;28;20025;-84
2023/01/29 04:25:25;;;;;;;0.80;0.80;;;;;;;;;;6279489;28;20020;-83
2023/01/29 04:28:27;;;;;;;2.35;1.20;;;;;;;;;;6299330;28;20020;-83
2023/01/29 04:31:31;;;;;;;1.95;1.85;;;;;;;;;;6275428;28;20048;-83
2023/01/29 04:34:37;;;;;;;3.10;1.50;;;;;;;;;;6294749;28;20025;-83
2023/01/29 04:37:41;;;;;;;2.05;1.90;;;;;;;;;;6280355;28;20024;-83
2023/01/29 04:40:50;;;;;;;0.90;0.90;;;;;;;;;;6299605;28;20017;-83
2023/01/29 04:44:08;;;;;;;0.95;0.95;;;;;;;;;;6278662;28;20100;-83
2023/01/29 04:47:26;;;;;;;0.40;0.40;;;;;;;;;;6278950;28;20036;-84
2023/01/29 04:50:39;;;;;;;0.68;0.68;;;;;;;;;;6298801;28;20017;-83
2023/01/29 04:53:39;;;;;;;1.60;1.60;;;;;;;;;;6280167;28;20022;-81
2023/01/29 04:56:58;;;;;;;1.42;1.42;;;;;;;;;;6298139;28;20016;-84
2023/01/29 05:00:18;;;;;;;0.40;0.40;;;;;;;;;;6288187;28;20260;-84
2023/01/29 05:03:21;;;;;;;2.47;2.35;;;;;;;;;;6287701;28;20476;-84
2023/01/29 05:06:22;;;;;;;2.10;2.03;;;;;;;;;;6273510;28;20020;-84
2023/01/29 05:09:23;;;;;;;1.93;1.77;;;;;;;;;;6275740;28;20427;-84
2023/01/29 05:12:25;;;;;;;0.57;0.57;;;;;;;;;;6297913;28;20027;-85
2023/01/29 05:15:25;;;;;;;;;;;;;;;;;;6280769;28;20017;-84
2023/01/29 05:18:25;;;;;;;0.43;0.43;;;;;;;;;;6279083;28;19919;-84
2023/01/29 05:21:25;;;;;;;2.13;2.03;;;;;;;;;;6289036;28;20274;-84
2023/01/29 05:24:26;;;;;;;0.67;0.67;;;;;;;;;;6280232;28;20410;-85
2023/01/29 05:30:50;;;;;;;0.80;0.80;;;;;;;;;;6293020;28;20028;-84
2023/01/29 05:33:50;;;;;;;3.83;2.17;;;;;;;;;;6290163;28;20017;-85
2023/01/29 05:36:51;;;;;;;0.87;0.87;;;;;;;;;;6272220;28;20023;-85
2023/01/29 05:39:51;;;;;;;1.70;1.57;;;;;;;;;;6278607;28;20392;-85
2023/01/29 05:42:51;;;;;;;0.40;0.40;;;;;;;;;;6296967;28;20008;-85
2023/01/29 05:45:56;;;;;;;1.97;1.80;;;;;;;;;;6278578;28;20017;-85
2023/01/29 05:48:56;;;;;;;1.60;1.60;;;;;;;;;;6296130;28;20020;-85
2023/01/29 05:51:56;;;;;;;1.70;1.63;;;;;;;;;;6295223;28;20074;-85
2023/01/29 05:54:57;;;;;;;0.90;0.90;;;;;;;;;;6278862;28;20025;-85
2023/01/29 05:57:57;;;;;;;10.30;5.63;;;;;;;;;;6297472;28;20383;-85
2023/01/29 06:00:57;;;;;;;3.03;2.83;;;;;;;;;;6297139;28;20511;-85
2023/01/29 06:03:57;;;;;;;2.33;1.43;;;;;;;;;;6279569;28;20463;-86
2023/01/29 06:06:58;;;;;;;1.13;1.07;;;;;;;;;;6280021;28;20016;-86
2023/01/29 06:09:58;;;;;;;0.30;0.30;;;;;;;;;;6277322;28;20031;-86
2023/01/29 06:12:58;;;;;;;0.30;0.30;;;;;;;;;;6300442;28;20016;-86
2023/01/29 06:15:58;;;;;;;0.60;0.60;;;;;;;;;;6260178;28;20050;-86
2023/01/29 06:18:59;;;;;;;0.50;0.50;;;;;;;;;;6297684;28;20480;-86
2023/01/29 06:21:59;;;;;;;0.33;0.33;;;;;;;;;;6299962;28;20021;-86
2023/01/29 06:24:59;;;;;;;1.87;1.77;;;;;;;;;;6282404;28;20012;-87
2023/01/29 06:27:59;;;;;;;0.90;0.90;;;;;;;;;;6275794;28;20116;-86
2023/01/29 06:31:04;;;;;;;0.83;0.83;;;;;;;;;;6280553;28;20016;-86
2023/01/29 06:34:04;;;;;;;0.70;0.70;;;;;;;;;;6277769;28;20013;-86
2023/01/29 06:37:06;;;;;;;5.83;3.83;;;;;;;;;;6285578;28;20384;-87
2023/01/29 06:40:07;;;;;;;3.05;2.88;;;;;;;;;;6289902;28;20016;-86
2023/01/29 06:43:08;;;;;;;1.00;1.00;;;;;;;;;;6292812;28;20439;-87
2023/01/29 06:46:08;;;;;;;0.50;0.50;;;;;;;;;;6292628;28;20027;-87
2023/01/29 06:49:10;;;;;;;0.63;0.63;;;;;;;;;;6293517;28;20423;-86
2023/01/29 06:52:10;;;;;;;2.80;2.67;;;;;;;;;;6292277;28;20481;-87
2023/01/29 06:55:10;;;;;;;0.67;0.67;;;;;;;;;;6280547;28;20112;-87
2023/01/29 06:58:11;;;;;;;1.07;1.07;;;;;;;;;;6273708;28;20013;-86
2023/01/29 07:01:12;;;;;;;0.83;0.83;;;;;;;;;;6281173;28;20017;-87
2023/01/29 07:04:12;;;;;;;2.83;2.63;;;;;;;;;;6298693;28;20408;-86
2023/01/29 07:07:18;;;;;;;3.23;3.03;;;;;;;;;;6301940;28;20016;-86
2023/01/29 07:10:18;;;;;;;3.50;3.33;;;;;;;;;;6298210;28;20044;-86
2023/01/29 07:13:18;;;;;;;0.30;0.30;;;;;;;;;;6283909;28;20089;-86
2023/01/29 07:16:19;;;;;;;5.13;3.93;;;;;;;;;;6301451;28;20476;-86
2023/01/29 07:19:19;;;;;;;4.83;3.23;;;;;;;;;;6280809;28;20017;-86
2023/01/29 07:22:19;;;;;;;0.43;0.43;;;;;;;;;;6294725;28;20036;-86
2023/01/29 07:25:20;;;;;;;1.63;1.53;;;;;;;;;;6295785;28;20008;-86
2023/01/29 07:28:20;;;;;;;1.93;1.63;;;;;;;;;;6280080;28;20017;-86
2023/01/29 07:31:21;;;;;;;1.35;1.35;;;;;;;;;;6276975;28;20279;-86
2023/01/29 07:34:21;;;;;;;12.55;5.78;;;;;;;;;;6296895;28;20009;-85
2023/01/29 07:37:22;;;;;;;6.63;6.17;;;;;;;;;;6275432;28;20396;-85
2023/01/29 07:40:22;;;;;;;3.07;2.87;;;;;;;;;;6295735;28;20044;-85
2023/01/29 07:43:23;;;;;;;4.53;4.10;;;;;;;;;;6270726;28;20104;-85
2023/01/29 07:46:23;;;;;;;2.33;2.22;;;;;;;;;;6284903;28;20013;-85
2023/01/29 07:49:24;;;;;;;1.13;1.13;;;;;;;;;;6279638;28;20035;-85
2023/01/29 07:52:24;;;;;;;1.53;1.47;;;;;;;;;;6270477;28;20047;-87
2023/01/29 07:55:24;;;;;;;3.83;2.87;;;;;;;;;;6283770;28;20016;-86
2023/01/29 07:58:24;;;;;;;0.60;0.60;;;;;;;;;;6278457;28;20029;-87
2023/01/29 08:01:25;;;;;;;1.83;1.73;;;;;;;;;;6277268;28;20020;-86
2023/01/29 08:04:25;;;;;;;4.27;3.57;;;;;;;;;;6282551;28;20024;-86
2023/01/29 08:07:25;;;;;;;5.90;5.50;;;;;;;;;;6282114;28;20020;-86
2023/01/29 08:10:25;;;;;;;6.70;6.10;;;;;;;;;;6275481;28;20481;-86
2023/01/29 08:13:25;;;;;;;2.67;2.47;;;;;;;;;;6271053;28;20033;-86
2023/01/29 08:16:26;;;;;;;2.55;2.17;;;;;;;;;;6279754;28;20029;-86
2023/01/29 08:19:26;;;;;;;3.83;2.90;;;;;;;;;;6287336;28;20099;-85
2023/01/29 08:22:26;;;;;;;2.20;2.10;;;;;;;;;;6279112;28;20017;-85
2023/01/29 08:25:26;;;;;;;0.77;0.77;;;;;;;;;;6273629;28;20022;-85
2023/01/29 08:28:27;;;;;;;0.50;0.50;;;;;;;;;;6275390;28;20040;-85
2023/01/29 08:31:27;;;;;;;1.33;1.33;;;;;;;;;;6291824;28;20067;-85
2023/01/29 08:34:27;;;;;;;4.88;3.53;;;;;;;;;;6279798;28;20016;-85
2023/01/29 08:37:27;;;;;;;3.87;3.27;;;;;;;;;;6295430;28;20151;-85
2023/01/29 08:40:28;;;;;;;0.87;0.87;;;;;;;;;;6289854;28;20028;-85
2023/01/29 08:43:28;;;;;;;12.93;9.13;;;;;;;;;;6269675;28;20020;-85
2023/01/29 08:46:29;;;;;;;3.47;3.20;;;;;;;;;;6271859;28;20360;-85
2023/01/29 08:49:29;;;;;;;0.53;0.53;;;;;;;;;;6284522;28;20040;-85
2023/01/29 08:52:30;;;;;;;2.70;2.60;;;;;;;;;;6268670;28;20020;-85
2023/01/29 08:55:30;;;;;;;1.03;1.03;;;;;;;;;;6262923;28;20059;-85
2023/01/29 08:58:30;;;;;;;2.55;2.45;;;;;;;;;;6289100;28;20047;-85
2023/01/29 09:01:30;;;;;;;1.70;1.65;;;;;;;;;;6277264;28;20100;-84
2023/01/29 09:04:30;;;;;;;0.30;0.30;;;;;;;;;;6285724;28;20021;-84
2023/01/29 09:07:31;;;;;;;0.73;0.73;;;;;;;;;;6286482;28;20047;-84
2023/01/29 09:10:31;;;;;;;1.47;1.43;;;;;;;;;;6278255;28;20043;-84
2023/01/29 09:13:32;;;;;;;1.33;1.33;;;;;;;;;;6297774;28;20025;-84
2023/01/29 09:16:32;;;;;;;1.70;1.67;;;;;;;;;;6274245;28;20032;-85
2023/01/29 09:19:32;;;;;;;1.45;1.45;;;;;;;;;;6285018;28;20527;-85
2023/01/29 09:22:33;;;;;;;1.60;1.50;;;;;;;;;;6277937;28;20013;-84
2023/01/29 09:25:33;;;;;;;1.30;1.13;;;;;;;;;;6274168;28;20028;-83
2023/01/29 09:28:33;;;;;;;2.80;2.23;;;;;;;;;;6285189;28;20084;-84
2023/01/29 09:31:33;;;;;;;1.07;1.07;;;;;;;;;;6270355;28;20033;-84
2023/01/29 09:34:34;;;;;;;2.30;2.07;;;;;;;;;;6268895;28;20024;-84
2023/01/29 09:37:34;;;;;;;2.63;2.40;;;;;;;;;;6287382;28;20031;-84
2023/01/29 09:40:39;;;;;;;1.43;1.33;;;;;;;;;;6284512;28;20384;-82
2023/01/29 09:43:54;;;;;;;1.25;1.25;;;;;;;;;;6286737;28;20071;-82
2023/01/29 09:46:55;;;;;;;7.88;6.20;;;;;;;;;;6273661;28;20037;-82
2023/01/29 09:49:58;;;;;;;5.90;3.97;;;;;;;;;;6294099;28;20036;-82
2023/01/29 09:53:20;;;;;;;4.75;3.47;;;;;;;;;;6266905;28;20526;-83
2023/01/29 09:56:21;;;;;;;8.88;4.13;;;;;;;;;;6268894;28;20172;-82
2023/01/29 09:59:22;;;;;;;5.57;5.07;;;;;;;;;;6287284;28;20024;-82
2023/01/29 10:02:41;;;;;;;1.80;1.70;;;;;;;;;;6267632;28;20384;-82
2023/01/29 10:05:45;;;;;;;2.47;2.00;;;;;;;;;;6281020;28;20410;-82
2023/01/29 10:09:08;;;;;;;3.22;3.08;;;;;;;;;;6263310;28;20025;-82
2023/01/29 10:12:14;;;;;;;2.40;0.77;;;;;;;;;;6280225;28;20411;-83
2023/01/29 10:15:25;;;;;;;3.60;2.92;;;;;;;;;;6281806;28;20045;-82
2023/01/29 10:18:25;;;;;;;0.60;0.60;;;;;;;;;;6279375;28;20234;-82
2023/01/29 10:21:31;;;;;;;2.97;1.40;;;;;;;;;;6274015;28;20249;-82
2023/01/29 10:24:31;;;;;;;1.77;1.67;;;;;;;;;;6289638;28;20294;-82
2023/01/29 10:27:33;;;;;;;2.03;1.38;;;;;;;;;;6288380;28;20054;-82
2023/01/29 10:30:36;;;;;;;0.73;0.73;;;;;;;;;;6289593;28;20116;-82
2023/01/29 10:33:40;;;;;;;0.43;0.43;;;;;;;;;;6283001;28;20094;-82
2023/01/29 10:36:47;;;;;;;0.60;0.60;;;;;;;;;;6283199;28;20025;-82
2023/01/29 10:39:47;;;;;;;3.85;3.65;;;;;;;;;;6281644;28;20044;-82
2023/01/29 10:42:51;;;;;;;5.23;3.53;;;;;;;;;;6286017;28;20384;-82
2023/01/29 10:46:07;;;;;;;3.63;3.33;;;;;;;;;;6285518;28;20048;-82
2023/01/29 10:49:15;;;;;;;5.68;5.10;;;;;;;;;;6283662;28;20028;-84
2023/01/29 10:52:15;;;;;;;1.40;1.40;;;;;;;;;;6283927;28;20020;-81
2023/01/29 10:55:23;;;;;;;3.27;3.10;;;;;;;;;;6279444;28;20035;-82
2023/01/29 10:58:42;;;;;;;5.15;3.92;;;;;;;;;;6265728;28;20052;-83
2023/01/29 11:01:43;;;;;;;3.25;2.13;;;;;;;;;;6286430;28;20050;-82
2023/01/29 11:04:43;;;;;;;17.13;2.77;;;;;;;;;;6288601;28;20021;-82
2023/01/29 11:07:44;;;;;;;2.97;2.77;;;;;;;;;;6274423;28;20047;-82
2023/01/29 11:10:51;;;;;;;4.03;3.63;;;;;;;;;;6289422;28;20066;-82
2023/01/29 11:13:53;;;;;;;3.53;2.92;;;;;;;;;;6285568;28;20561;-83
2023/01/29 11:16:54;;;;;;;1.48;1.42;;;;;;;;;;6279640;28;20033;-83
2023/01/29 11:19:54;;;;;;;3.77;3.40;;;;;;;;;;6284271;28;20016;-82
2023/01/29 11:22:54;;;;;;;0.50;0.50;;;;;;;;;;6290808;28;20020;-82
2023/01/29 11:25:56;;;;;;;2.90;2.78;;;;;;;;;;6287759;28;20021;-83
2023/01/29 11:28:56;;;;;;;1.63;1.52;;;;;;;;;;6288039;28;20563;-81
2023/01/29 11:31:58;;;;;;;1.97;1.90;;;;;;;;;;6288140;28;20078;-81
2023/01/29 11:35:02;;;;;;;0.52;0.52;;;;;;;;;;6316752;28;20472;-82
2023/01/29 11:38:06;;;;;;;0.95;0.93;;;;;;;;;;6319857;28;20032;-81
2023/01/29 11:41:13;;;;;;;3.72;1.70;;;;;;;;;;6321543;28;20028;-81
2023/01/29 11:44:33;;;;;;;2.38;2.28;;;;;;;;;;6313241;28;20020;-82
2023/01/29 11:47:33;;;;;;;1.48;1.38;;;;;;;;;;6325679;28;20122;-82
2023/01/29 11:50:33;;;;;;;3.50;3.20;;;;;;;;;;6317786;28;20036;-82
2023/01/29 11:53:44;;;;;;;3.37;3.07;;;;;;;;;;6316995;28;20376;-82
2023/01/29 11:56:45;;;;;;;3.35;3.15;;;;;;;;;;6322738;28;20042;-82
2023/01/29 11:59:49;;;;;;;1.85;1.75;;;;;;;;;;6320159;28;20016;-82
2023/01/29 12:03:11;;;;;;;3.83;2.45;;;;;;;;;;6313778;28;20445;-82
2023/01/29 12:06:17;;;;;;;1.95;1.85;;;;;;;;;;6310412;28;20036;-82
2023/01/29 12:09:20;;;;;;;1.05;0.82;;;;;;;;;;6324366;28;20020;-82
2023/01/29 12:12:31;;;;;;;1.88;1.77;;;;;;;;;;6309155;28;20012;-82
2023/01/29 12:15:31;;;;;;;2.63;2.53;;;;;;;;;;6317605;28;20016;-83
2023/01/29 12:18:36;;;;;;;2.10;2.00;;;;;;;;;;6320860;28;20093;-83
2023/01/29 12:21:47;;;;;;;6.93;4.05;;;;;;;;;;6315862;28;20391;-83
2023/01/29 12:24:56;;;;;;;0.77;0.77;;;;;;;;;;6321352;28;20088;-83
2023/01/29 12:28:04;;;;;;;2.15;2.05;;;;;;;;;;6315226;28;20032;-83
2023/01/29 12:31:08;;;;;;;5.78;5.18;;;;;;;;;;6314556;28;20088;-83
2023/01/29 12:34:08;;;;;;;12.77;5.90;;;;;;;;;;6275245;28;20031;-84
2023/01/29 12:37:27;;;;;;;5.57;3.50;;;;;;;;;;6275772;28;20431;-83
2023/01/29 12:40:39;;;;;;;2.83;2.63;;;;;;;;;;6264357;28;20021;-85
2023/01/29 12:43:47;;;;;;;9.15;5.03;;;;;;;;;;6291544;28;20017;-83
2023/01/29 12:46:51;;;;;;;7.05;5.72;;;;;;;;;;6266611;28;20024;-83
2023/01/29 12:49:56;;;;;;;6.07;5.18;;;;;;;;;;6294651;28;20365;-84
2023/01/29 12:53:04;;;;;;;2.38;2.28;;;;;;;;;;6276036;28;20455;-83
2023/01/29 12:56:25;;;;;;;5.60;4.30;;;;;;;;;;6271041;28;20431;-83
2023/01/29 12:59:25;;;;;;;3.30;3.00;;;;;;;;;;6296201;28;20021;-83
2023/01/29 13:02:38;;;;;;;4.95;4.47;;;;;;;;;;6275106;28;20053;-83
2023/01/29 13:05:43;;;;;;;2.22;2.13;;;;;;;;;;6274861;28;20047;-83
2023/01/29 13:09:00;;;;;;;5.32;4.30;;;;;;;;;;6288845;28;20028;-82
2023/01/29 13:12:15;;;;;;;9.18;2.10;;;;;;;;;;6273402;28;20476;-82
2023/01/29 13:15:18;;;;;;;0.73;0.73;;;;;;;;;;6292230;28;20020;-82
2023/01/29 13:18:37;;;;;;;1.33;1.33;;;;;;;;;;6277159;28;20036;-82
2023/01/29 13:21:39;;;;;;;3.55;2.38;;;;;;;;;;6267358;28;20051;-82
2023/01/29 13:24:40;;;;;;;2.03;1.92;;;;;;;;;;6297931;28;20012;-83
2023/01/29 13:27:41;;;;;;;2.10;2.00;;;;;;;;;;6294072;28;20055;-83
2023/01/29 13:30:42;;;;;;;0.68;0.68;;;;;;;;;;6279837;28;20119;-83
2023/01/29 13:33:43;;;;;;;3.00;2.80;;;;;;;;;;6321426;28;20461;-82
2023/01/29 13:36:45;;;;;;;5.53;3.53;;;;;;;;;;6314549;28;20430;-83
2023/01/29 13:39:52;;;;;;;3.10;2.92;;;;;;;;;;6314224;28;20250;-83
2023/01/29 13:42:54;;;;;;;2.05;1.77;;;;;;;;;;6315578;28;20125;-83
2023/01/29 13:45:54;;;;;;;14.40;3.60;;;;;;;;;;6313467;28;20111;-82
2023/01/29 13:48:57;;;;;;;1.30;1.30;;;;;;;;;;6316724;28;20024;-82
2023/01/29 13:51:58;;;;;;;1.63;1.63;;;;;;;;;;6315635;28;20122;-83
2023/01/29 13:55:00;;;;;;;2.15;2.05;;;;;;;;;;6318674;28;20036;-83
2023/01/29 13:58:02;;;;;;;4.20;3.88;;;;;;;;;;6319242;28;20103;-82
2023/01/29 14:01:02;;;;;;;8.05;2.58;;;;;;;;;;6316866;28;20109;-82
2023/01/29 14:04:13;;;;;;;1.47;1.47;;;;;;;;;;6309676;28;20463;-82
2023/01/29 14:07:32;;;;;;;2.77;2.57;;;;;;;;;;6313425;28;20472;-82
2023/01/29 14:10:33;;;;;;;1.60;1.60;;;;;;;;;;6315092;28;20273;-82
2023/01/29 14:13:34;;;;;;;1.53;1.53;;;;;;;;;;6320782;28;20024;-82
2023/01/29 14:16:35;;;;;;;4.50;3.30;;;;;;;;;;6317089;28;20027;-82
2023/01/29 14:19:35;;;;;;;6.43;3.50;;;;;;;;;;6321778;28;20016;-83
2023/01/29 14:22:35;;;;;;;1.20;1.20;;;;;;;;;;6321560;28;20243;-83
2023/01/29 14:25:37;;;;;;;7.13;2.00;;;;;;;;;;6312139;28;20021;-83
2023/01/29 14:28:39;;;;;;;5.80;5.47;;;;;;;;;;6305227;28;20036;-84
2023/01/29 14:31:39;;;;;;;;;;;;;;;;;;6297000;28;20504;-82
2023/01/29 14:34:50;;;;;;;0.70;0.70;;;;;;;;;;6274243;28;19958;-82
2023/01/29 14:37:52;;;;;;;0.68;0.68;;;;;;;;;;6273659;28;20511;-82
2023/01/29 14:41:02;;;;;;;2.70;1.40;;;;;;;;;;6293269;28;20027;-83
2023/01/29 14:44:20;;;;;;;1.35;1.35;;;;;;;;;;6293405;28;20025;-83
2023/01/29 14:47:42;;;;;;;1.58;1.55;;;;;;;;;;6277521;28;20499;-83
2023/01/29 14:50:45;;;;;;;2.35;2.20;;;;;;;;;;6290321;28;20016;-82
2023/01/29 14:53:54;;;;;;;5.13;2.50;;;;;;;;;;6273050;28;20052;-82
2023/01/29 14:56:57;;;;;;;3.88;3.70;;;;;;;;;;6283023;28;20032;-83
2023/01/29 15:00:14;;;;;;;6.15;5.70;;;;;;;;;;6290095;28;20034;-82
2023/01/29 15:03:26;;;;;;;5.25;1.95;;;;;;;;;;6273024;28;20361;-82
2023/01/29 15:06:29;;;;;;;3.80;3.05;;;;;;;;;;6266753;28;20013;-82
2023/01/29 15:09:44;;;;;;;2.92;2.80;;;;;;;;;;6268067;28;20049;-82
2023/01/29 15:12:50;;;;;;;9.75;4.30;;;;;;;;;;6285044;28;20017;-82
2023/01/29 15:15:53;;;;;;;2.47;2.20;;;;;;;;;;6270397;28;20005;-81
2023/01/29 15:18:55;;;;;;;2.92;2.67;;;;;;;;;;6291733;28;20451;-81
2023/01/29 15:22:02;;;;;;;2.75;2.58;;;;;;;;;;6266424;28;20016;-81
2023/01/29 15:25:06;;;;;;;8.05;4.28;;;;;;;;;;6293730;28;20085;-81
2023/01/29 15:28:09;;;;;;;2.72;2.60;;;;;;;;;;6292709;28;20388;-81
2023/01/29 15:31:15;;;;;;;6.18;3.65;;;;;;;;;;6274951;28;20032;-81
2023/01/29 15:34:16;;;;;;;1.83;1.77;;;;;;;;;;6268144;28;20074;-82
2023/01/29 15:37:24;;;;;;;5.70;5.20;;;;;;;;;;6269924;28;20025;-81
2023/01/29 15:40:24;;;;;;;0.85;0.85;;;;;;;;;;6292553;28;20017;-81
2023/01/29 15:43:35;;;;;;;2.57;2.43;;;;;;;;;;6248000;28;20366;-81
2023/01/29 15:46:36;;;;;;;2.50;2.25;;;;;;;;;;6292026;28;20009;-81
2023/01/29 15:49:38;;;;;;;3.47;3.20;;;;;;;;;;6275373;28;20142;-81
2023/01/29 15:52:38;;;;;;;;;;;;;;;;;;6288946;28;20267;-81
2023/01/29 15:55:38;;;;;;;0.88;0.88;;;;;;;;;;6289863;28;19991;-81
2023/01/29 15:58:40;;;;;;;3.90;3.60;;;;;;;;;;6267492;28;20025;-81
2023/01/29 16:01:41;;;;;;;4.32;3.47;;;;;;;;;;6294844;28;20511;-81
2023/01/29 16:04:41;;;;;;;1.27;1.27;;;;;;;;;;6297857;28;20016;-81
2023/01/29 16:07:42;;;;;;;2.03;1.77;;;;;;;;;;6288989;28;20048;-80
2023/01/29 16:10:44;;;;;;;5.33;4.87;;;;;;;;;;6275144;28;20490;-80
2023/01/29 16:13:46;;;;;;;2.13;2.08;;;;;;;;;;6280969;28;20263;-80
2023/01/29 16:16:47;;;;;;;4.90;4.57;;;;;;;;;;6286849;28;20074;-80
2023/01/29 16:20:00;;;;;;;2.00;1.95;;;;;;;;;;6270536;28;20004;-80
2023/01/29 16:23:01;;;;;;;4.43;4.22;;;;;;;;;;6271857;28;20016;-80
2023/01/29 16:26:02;;;;;;;6.10;5.27;;;;;;;;;;6293749;28;20024;-80
2023/01/29 16:29:06;;;;;;;7.15;5.95;;;;;;;;;;6281754;28;20023;-80
2023/01/29 16:32:07;;;;;;;3.67;3.42;;;;;;;;;;6286696;28;20415;-80
2023/01/29 16:35:14;;;;;;;1.77;1.50;;;;;;;;;;6310887;28;20024;-80
2023/01/29 16:38:21;;;;;;;4.28;4.03;;;;;;;;;;6308053;28;20415;-80
2023/01/29 16:41:22;;;;;;;2.53;2.42;;;;;;;;;;6295564;28;20107;-80
2023/01/29 16:44:36;;;;;;;3.42;3.28;;;;;;;;;;6307748;28;20012;-80
2023/01/29 16:47:37;;;;;;;5.00;4.63;;;;;;;;;;6311224;28;20124;-79
2023/01/29 16:50:38;;;;;;;5.13;4.72;;;;;;;;;;6319828;28;20023;-79
2023/01/29 16:53:38;;;;;;;4.87;4.57;;;;;;;;;;6317041;28;20012;-80
2023/01/29 16:56:39;;;;;;;8.10;7.33;;;;;;;;;;6313295;28;20023;-79
2023/01/29 16:59:40;;;;;;;2.23;2.13;;;;;;;;;;6312324;28;20017;-79
2023/01/29 17:02:40;;;;;;;2.22;2.13;;;;;;;;;;6315151;28;20091;-80
2023/01/29 17:05:40;;;;;;;2.23;2.13;;;;;;;;;;6315228;28;20028;-79
2023/01/29 17:08:41;;;;;;;4.03;3.83;;;;;;;;;;6317463;28;20018;-80
2023/01/29 17:11:41;;;;;;;2.87;2.67;;;;;;;;;;6310961;28;20070;-80
2023/01/29 17:14:50;;;;;;;18.97;9.40;;;;;;;;;;6314033;28;20019;-79
2023/01/29 17:17:51;;;;;;;5.40;5.10;;;;;;;;;;6312374;28;20012;-79
2023/01/29 17:20:54;;;;;;;3.60;3.40;;;;;;;;;;6319030;28;20004;-79
2023/01/29 17:23:54;;;;;;;10.00;4.45;;;;;;;;;;6313181;28;20025;-79
2023/01/29 17:26:54;;;;;;;5.43;5.13;;;;;;;;;;6311531;28;20423;-79
2023/01/29 17:29:54;;;;;;;5.18;4.82;;;;;;;;;;6307663;28;20028;-79
2023/01/29 17:32:54;;;;;;;6.47;5.87;;;;;;;;;;6297262;28;20045;-79
2023/01/29 17:35:55;;;;;;;4.85;4.50;;;;;;;;;;6279156;28;20020;-79
2023/01/29 17:38:55;;;;;;;2.90;2.30;;;;;;;;;;6290596;28;20088;-79
2023/01/29 17:41:56;;;;;;;3.45;3.33;;;;;;;;;;6291861;28;20024;-78
2023/01/29 17:44:56;;;;;;;5.03;4.60;;;;;;;;;;6283881;28;20380;-79
2023/01/29 17:47:57;;;;;;;1.45;1.45;;;;;;;;;;6286239;28;20272;-79
2023/01/29 17:50:59;;;;;;;3.30;3.10;;;;;;;;;;6288267;28;20017;-79
2023/01/29 17:53:59;;;;;;;4.10;3.90;;;;;;;;;;6293061;28;20017;-78
2023/01/29 17:56:59;;;;;;;9.05;8.05;;;;;;;;;;6292228;28;20051;-79
2023/01/29 17:59:59;;;;;;;4.83;4.60;;;;;;;;;;6285340;28;20024;-79
2023/01/29 18:03:01;;;;;;;1.77;1.67;;;;;;;;;;6292123;28;20062;-79
2023/01/29 18:06:01;;;;;;;7.38;6.65;;;;;;;;;;6290245;28;20486;-79
2023/01/29 18:09:02;;;;;;;3.27;3.07;;;;;;;;;;6283096;28;20017;-79
2023/01/29 18:12:02;;;;;;;5.93;5.47;;;;;;;;;;6290603;28;20025;-79
2023/01/29 18:15:02;;;;;;;4.93;4.60;;;;;;;;;;6279499;28;20032;-79
2023/01/29 18:18:03;;;;;;;1.40;1.40;;;;;;;;;;6285613;28;20517;-79
2023/01/29 18:21:04;;;;;;;4.23;4.00;;;;;;;;;;6262206;28;20071;-79
2023/01/29 18:24:04;;;;;;;8.33;7.70;;;;;;;;;;6270553;28;20088;-79
2023/01/29 18:27:04;;;;;;;2.07;2.00;;;;;;;;;;6287619;28;20469;-79
2023/01/29 18:30:05;;;;;;;4.80;4.23;;;;;;;;;;6269862;28;20433;-79
2023/01/29 18:33:05;;;;;;;5.73;3.33;;;;;;;;;;6292061;28;20053;-79
2023/01/29 18:36:06;;;;;;;3.50;3.35;;;;;;;;;;6288696;28;20016;-80
2023/01/29 18:39:06;;;;;;;2.70;2.57;;;;;;;;;;6292860;28;20283;-80
2023/01/29 18:42:06;;;;;;;15.20;7.20;;;;;;;;;;6280808;28;20024;-80
2023/01/29 18:45:06;;;;;;;5.87;5.57;;;;;;;;;;6288948;28;20036;-81
2023/01/29 18:48:07;;;;;;;2.97;2.73;;;;;;;;;;6285348;28;20012;-80
2023/01/29 18:51:07;;;;;;;12.13;5.67;;;;;;;;;;6266284;28;20021;-80